Home Team Position History
You can show your support by sponsoring this page for $50.  
Your ad/message will appear in this space for one year.  
Thank you for your support!       Team History Index Boston Red Sox
         
          Right Field
             
Pos St All- Other Right Field Fielding Stats Pos St Batting Statistics as Right Fielder Win Shares Pos St
Year Rank Rank Name HOF MVP Star Rookie GG SS Team Stdg Bats Age Pos Games PO Assts Err DP F Pct. Year Rank Rank Name At Bats Hits 2B 3B HR Runs RBI BB IBB SO HP SH SF SB CS GDP BA OBA SA OPS RC B WS F WS T WS BWS/G FWS/G TWS/G Adj WSQ Year Rank Rank Name
1901 6 6 Charlie Hemphill     BOS 2 L 25   134 184 22 17 4 .924   1901 6 6 Charlie Hemphill 537 140 10 10 3 70 61 38 2 9 11 .261 .312 .333 .645 69   7.3 3.0 10.3 .054 .022 .077 8.09 1901 6 6 Charlie Hemphill
         
1902 1 1 Buck Freeman     BOS 3 L 30   138 222 15 14 3 .944   1902 1 1 Buck Freeman 564 174 38 19 11 75 121 32 6 6 17 .309 .352 .502 .854 106   20.2 3.0 23.2 .146 .022 .168 25.58 1902 1 1 Buck Freeman
         
1903 2 2 Buck Freeman     BOS 1 L 31   141 195 13 15 2 .933   1903 2 2 Buck Freeman 567 163 39 20 13 74 104 30 4 10 5 .287 .328 .496 .824 103   21.7 2.7 24.4 .154 .019 .173 25.24 1903 2 2 Buck Freeman
         
1904 4 4 Buck Freeman     BOS 1 L 32   157 216 14 11 4 .954   1904 4 4 Buck Freeman 597 167 20 19 7 64 84 32 12 11 7 .280 .329 .412 .741 88   21.7 3.3 25.0 .138 .021 .159 24.79 1904 4 4 Buck Freeman
         
1905 5 5 Kip Selbach     BOS 4 R 33 CF   92 144 7 13 1 .921   1905 5 5 Kip Selbach 343 85 13 5 3 44 39 55 2 9 10 .248 .355 .341 .696 53   12.9 1.3 14.2 .140 .014 .154 13.91 1905 5 5 Kip Selbach
1905 10 Buck Freeman     BOS 4 L 33 1B   56 63 0 3 0 .955   1905 10 Buck Freeman 204 49 9 4 1 26 22 21 2 4 4 .240 .317 .338 .655 26   5.5 0.5 6.0 .098 .009 .107 4.90 1905 10 Buck Freeman
         
1906 14 8 Jack Hayden     BOS 8 L 25   85 136 7 4 1 .973   1906 14 8 Jack Hayden 322 80 6 4 1 22 14 17 3 10 6 .248 .292 .301 .593 29   3.8 1.1 4.9 .045 .013 .058 3.22 1906 14 8 Jack Hayden
1906 13 Buck Freeman     BOS 8 L 34 1B   62 70 12 1 2 .988   1906 13 Buck Freeman 217 54 10 5 1 23 17 16 1 8 3 .249 .303 .355 .658 23   3.9 0.7 4.6 .063 .011 .074 3.43 1906 13 Buck Freeman
         
1907 5 5 Bunk Congalton     BOS 7 L 32   123 169 18 6 4 .969   1907 5 5 Bunk Congalton 496 142 11 8 2 44 47 20 3 13 13 .286 .318 .353 .671 58   9.9 2.6 12.5 .080 .021 .102 9.40 1907 5 5 Bunk Congalton
1907 12 Moose Grimshaw     BOS 7 B 31   22 26 1 1 0 .964   1907 12 Moose Grimshaw 100 20 4 1 0 10 18 9 1 3 3 .200 .273 .260 .533 8   0.7 0.3 1.0 .032 .014 .045 0.51 1907 12 Moose Grimshaw
         
1908 2 2 Doc Gessler     BOS 5 L 27   126 162 8 9 4 .950   1908 2 2 Doc Gessler 435 134 13 14 3 55 63 51 11 10 19 .308 .394 .423 .817 87   24.3 1.5 25.8 .193 .012 .205 29.47 1908 2 2 Doc Gessler
         
1909 3 3 Doc Gessler     BOS 3 L 28   109 135 18 11 1 .933   1909 3 3 Doc Gessler 396 115 24 1 0 57 46 31 8 5 16 .290 .354 .356 .710 57   14.4 1.9 16.3 .132 .017 .150 15.70 1909 3 3 Doc Gessler
1909 13 Harry Niles     BOS 3 R 28 LF   28 46 5 3 1 .944   1909 13 Harry Niles 106 26 2 1 0 12 7 8 3 4 5 .245 .316 .283 .599 11   2.0 0.5 2.5 .071 .018 .089 1.86 1909 13 Harry Niles
         
1910 5 5 Harry Hooper Vet     BOS 4 L 22   142 219 28 17 7 .936   1910 5 5 Harry Hooper 535 143 8 9 2 74 25 57 7 31 37 .267 .346 .327 .673 70   13.7 3.3 17.0 .096 .023 .120 15.79 1910 5 5 Harry Hooper
         
1911 4 4 Harry Hooper Vet     BOS 5 L 23   130 181 27 10 1 .954   1911 4 4 Harry Hooper 524 163 20 6 4 93 45 73 4 13 38 .311 .399 .395 .794 91   16.6 3.2 19.8 .128 .025 .152 18.71 1911 4 4 Harry Hooper
1911 13 Olaf Henriksen   R   BOS 5 L 23   20 30 2 2 1 .941   1911 13 Olaf Henriksen 41 15 1 0 0 8 4 6 0 0 2 .366 .447 .390 .837 8   1.6 0.4 2.0 .080 .020 .100 1.53 1911 13 Olaf Henriksen
         
1912 4 4 Harry Hooper Vet     BOS 1 L 24   147 220 22 9 6 .964   1912 4 4 Harry Hooper 590 143 20 12 2 98 53 66 7 21 29 .242 .326 .327 .653 77   10.9 4.5 15.4 .074 .031 .105 12.93 1912 4 4 Harry Hooper
         
1913 4 4 Harry Hooper Vet T24     BOS 4 L 25   137 226 24 8 7 .969   1913 4 4 Harry Hooper 542 156 27 11 4 93 37 56 47 5 12 24 23 .288 .360 .400 .760 80   16.7 2.2 18.9 .122 .016 .138 17.80 1913 4 4 Harry Hooper
         
1914 3 3 Harry Hooper Vet T20     BOS 2 L 26   139 229 23 7 5 .973   1914 3 3 Harry Hooper 526 136 23 15 1 84 41 58 47 4 7 19 14 .259 .337 .365 .702 70   15.9 3.8 19.7 .114 .027 .142 19.91 1914 3 3 Harry Hooper
1914 11 Wally Rehg   R   BOS 2 R 25   27 28 3 1 2 .969   1914 11 Wally Rehg 95 21 3 1 0 9 7 11 7 1 1 3 5 .221 .308 .274 .582 8   0.8 0.4 1.2 .030 .015 .044 0.68 1914 11 Wally Rehg
         
1915 2 2 Harry Hooper Vet     BOS 1 L 27   149 255 23 8 7 .972   1915 2 2 Harry Hooper 566 133 20 13 2 90 51 89 36 3 17 22 20 .235 .342 .327 .669 76   14.9 4.5 19.4 .100 .030 .130 19.67 1915 2 2 Harry Hooper
         
1916 1 1 Harry Hooper Vet     BOS 1 L 28   151 266 19 10 5 .966   1916 1 1 Harry Hooper 575 156 20 11 1 75 37 80 35 1 14 27 11 .271 .361 .350 .711 81   21.4 4.2 25.6 .142 .028 .170 28.94 1916 1 1 Harry Hooper
         
1917 2 2 Harry Hooper Vet     BOS 2 L 29   151 245 20 8 3 .971   1917 2 2 Harry Hooper 559 143 21 11 3 89 45 80 40 6 22 21 .256 .355 .349 .704 78   18.0 4.3 22.3 .119 .028 .148 23.80 1917 2 2 Harry Hooper
         
1918 1 1 Harry Hooper Vet     BOS 1 L 30   126 221 16 9 8 .963   1918 1 1 Harry Hooper 474 137 26 13 1 81 44 75 25 4 16 24 .289 .391 .405 .796 84   25.2 3.7 28.9 .200 .029 .229 35.86 1918 1 1 Harry Hooper
         
1919 4 4 Harry Hooper Vet     BOS 6 L 31   128 262 19 6 2 .979   1919 4 4 Harry Hooper 491 131 25 6 3 76 49 79 28 5 12 23 .267 .374 .360 .734 73   15.1 2.2 17.3 .118 .017 .135 17.81 1919 4 4 Harry Hooper
         
1920 2 2 Harry Hooper Vet     BOS 5 L 32   137 259 22 11 2 .962   1920 2 2 Harry Hooper 528 165 30 17 7 90 52 87 27 2 5 16 18 .313 .412 .473 .885 102   20.6 2.8 23.4 .150 .020 .171 23.84 1920 2 2 Harry Hooper
         
Pos St All- Other Right Field Fielding Stats Pos St Batting Statistics as Right Fielder Win Shares Pos St
Year Rank Rank Name HOF MVP Star Rookie GG SS Team Stdg Bats Age Pos Games PO Assts Err DP F Pct. Year Rank Rank Name At Bats Hits 2B 3B HR Runs RBI BB IBB SO HP SH SF SB CS GDP BA OBA SA OPS RC B WS F WS T WS BWS/G FWS/G TWS/G Adj WSQ Year Rank Rank Name
1921 8 7 Shano Collins     BOS 5 R 35 CF   94 161 16 7 6 .962   1921 8 7 Shano Collins 359 103 19 8 3 42 43 12 25 3 13 10 5 .287 .316 .409 .725 46   5.6 2.0 7.6 .060 .021 .081 5.83 1921 8 7 Shano Collins
1921 12 Tim Hendryx     BOS 5 R 30   37 59 2 3 0 .953   1921 12 Tim Hendryx 124 30 7 2 0 9 19 22 12 2 5 1 1 .242 .365 .331 .696 17   2.1 0.6 2.7 .057 .016 .073 1.96 1921 12 Tim Hendryx
         
1922 14 8 Shano Collins     BOS 8 R 36 CF   63 115 3 7 0 .944   1922 14 8 Shano Collins 248 67 13 4 1 17 27 4 16 3 11 4 5 .270 .290 .367 .657 24   1.6 1.1 2.7 .025 .017 .043 1.48 1922 14 8 Shano Collins
1922 8 Elmer Smith     BOS 8 L 29   57 114 7 7 3 .945   1922 8 Elmer Smith 227 65 12 6 6 42 31 25 21 1 6 0 3 .286 .360 .471 .831 37   6.0 1.3 7.3 .105 .023 .128 6.68 1922 8 Elmer Smith
1922 12 Mike Menosky     BOS 8 L 27 LF   26 59 4 2 1 .969   1922 12 Mike Menosky 102 29 4 1 1 15 8 10 8 1 3 2 1 .284 .354 .373 .727 14   1.9 0.8 2.7 .073 .031 .104 2.30 1922 12 Mike Menosky
         
1923 5 5 Ira Flagstead     BOS 8 R 29   99 210 32 10 8 .960   1923 5 5 Ira Flagstead 371 116 22 4 8 53 51 36 25 5 10 7 10 .313 .381 .458 .839 62   10.8 3.0 13.8 .109 .030 .139 12.38 1923 5 5 Ira Flagstead
1923 14 Shano Collins     BOS 8 R 37 CF   32 49 7 4 1 .933   1923 14 Shano Collins 123 28 4 2 0 15 6 4 10 2 3 3 3 .228 .264 .293 .557 9   - 0.5 0.5 .000 .016 .016 0.15 1923 14 Shano Collins
         
1924 5 5 Ike Boone T20   R   BOS 7 L 27   124 189 17 5 3 .976   1924 5 5 Ike Boone 487 164 31 4 13 72 98 54 32 1 3 2 2 .337 .404 .497 .901 93   15.4 2.5 17.9 .124 .020 .144 16.99 1924 5 5 Ike Boone
1924 13 Shano Collins     BOS 7 R 38   27 38 2 2 0 .952   1924 13 Shano Collins 95 28 7 2 0 15 11 7 7 1 4 2 2 .295 .350 .411 .761 13   1.4 0.4 1.8 .052 .015 .067 1.16 1924 13 Shano Collins
         
1925 4 4 Ike Boone T27     BOS 8 L 28   118 198 9 13 1 .941   1925 4 4 Ike Boone 476 157 34 5 9 79 68 60 19 1 8 1 4 .330 .406 .479 .885 89   13.7 1.2 14.9 .116 .010 .126 14.28 1925 4 4 Ike Boone
1925 17 Roy Carlyle   R   BOS 8 L 24 LF   24 45 2 5 0 .904   1925 17 Roy Carlyle 99 32 7 1 3 13 18 6 10 0 3 0 0 .323 .362 .505 .867 17   2.4 0.2 2.6 .100 .008 .108 2.31 1925 17 Roy Carlyle
         
1926 16 8 Jack Tobin     BOS 8 L 34   51 77 7 3 1 .966   1926 16 8 Jack Tobin 205 56 8 0 1 26 14 15 3 0 5 5 5 .273 .323 .327 .650 21   1.3 0.7 2.0 .025 .014 .039 1.03 1926 16 8 Jack Tobin
1926 11 Roy Carlyle     BOS 8 L 25   38 62 4 7 0 .904   1926 11 Roy Carlyle 165 47 6 2 2 22 16 4 18 2 0 0 0 .285 .310 .382 .692 21   3.1 0.4 3.5 .082 .011 .092 2.74 1926 11 Roy Carlyle
1926 13 Baby Doll Jacobson 26     BOS 8 R 35 CF   36 59 3 2 0 .969   1926 13 Baby Doll Jacobson 143 44 13 0 2 16 25 8 8 1 7 1 0 .308 .349 .441 .790 21   2.7 0.4 3.1 .075 .011 .086 2.36 1926 13 Baby Doll Jacobson
         
1927 9 7 Jack Tobin     BOS 8 L 35   89 144 10 9 4 .945   1927 9 7 Jack Tobin 354 110 17 3 2 49 38 34 9 0 9 5 4 .311 .371 .393 .764 51   7.4 0.9 8.3 .083 .010 .093 6.34 1927 9 7 Jack Tobin
1927 13 Cleo Carlyle   R   BOS 8 L 24 LF   50 76 6 3 0 .965   1927 13 Cleo Carlyle 167 39 7 5 1 19 17 22 24 1 5 2 2 .234 .326 .353 .679 19   1.5 0.8 2.3 .030 .016 .046 1.23 1927 13 Cleo Carlyle
         
1928 5 5 Doug Taitt   R   BOS 8 L 25   130 235 18 7 8 .973   1928 5 5 Doug Taitt 448 134 26 13 3 47 57 33 30 2 16 12 6 .299 .350 .435 .785 67   10.3 2.3 12.6 .079 .018 .097 10.05 1928 5 5 Doug Taitt
         
1929 8 7 Bill Barrett     BOS 8 R 29   101 179 16 5 4 .975   1929 8 7 Bill Barrett 331 89 21 4 3 51 31 46 34 3 11 10 7 .269 .363 .384 .747 46   5.9 2.0 7.9 .058 .020 .078 6.02 1929 8 7 Bill Barrett
1929 14 Elliott Bigelow   R   BOS 8 L 31   55 58 5 4 1 .940   1929 14 Elliott Bigelow 197 56 15 0 1 21 24 21 17 1 5 1 4 .284 .356 .376 .732 26   3.2 0.5 3.7 .058 .009 .067 2.61 1929 14 Elliott Bigelow
         
1930 5 5 Earl Webb     BOS 8 L 32   116 200 8 9 4 .959   1930 5 5 Earl Webb 449 145 30 6 16 61 66 44 56 1 12 2 1 .323 .385 .523 .908 88   12.5 1.7 14.2 .108 .015 .122 13.08 1930 5 5 Earl Webb
1930 15 Cedric Durst     BOS 8 L 33 LF   29 56 2 2 1 .967   1930 15 Cedric Durst 117 29 7 2 0 11 9 7 9 1 3 1 0 .248 .296 .342 .638 12   0.6 0.5 1.1 .021 .017 .038 0.56 1930 15 Cedric Durst
         
1931 2 2 Earl Webb 6     BOS 6 L 33   151 270 21 16 5 .948   1931 2 2 Earl Webb 589 196 67 3 14 96 103 70 51 0 1 2 2 .333 .404 .528 .932 125   22.7 2.4 25.1 .150 .016 .166 27.24 1931 2 2 Earl Webb
         
1932 7 7 Roy Johnson     BOS 8 L 29   56 102 4 9 0 .922   1932 7 7 Roy Johnson 227 69 15 3 8 47 32 30 27 1 0 9 3 .304 .388 .502 .890 40   5.1 0.7 5.8 .091 .013 .104 5.06 1932 7 7 Roy Johnson
1932 4 Earl Webb     BOS 8 L 34   50 74 7 3 2 .964   1932 4 Earl Webb 185 52 8 1 5 22 26 24 14 0 2 0 0 .281 .364 .416 .780 28   3.7 1.0 4.7 .074 .020 .094 3.91 1932 4 Earl Webb
1932 17 George Stumpf   R   BOS 8 L 21   32 48 1 3 0 .942   1932 17 George Stumpf 106 21 1 1 1 11 11 11 13 0 1 1 1 .198 .274 .255 .529 7   - 0.3 0.3 .000 .009 .009 0.07 1932 17 George Stumpf
         
1933 5 4 Roy Johnson   BOS 7 L 30 LF   95 198 11 18 2 .921   1933 5 4 Roy Johnson 350 110 22 5 7 64 69 40 26 3 4 9 7 .314 .389 .466 .855 63   9.9 1.8 11.7 .104 .019 .123 11.70 1933 5 4 Roy Johnson
1933 11 Dusty Cooke   BOS 7 L 26 LF,CF   30 45 1 3 1 .939   1933 11 Dusty Cooke 93 27 7 2 1 18 11 14 14 0 2 1 1 .290 .383 .441 .824 16   2.5 0.4 2.9 .083 .013 .097 2.57 1933 11 Dusty Cooke
       
1934 7 7 Dick Porter   BOS 4 L 32   64 107 1 7 1 .939   1934 7 7 Dick Porter 261 79 13 6 0 30 55 21 15 1 1 5 2 .303 .357 .398 .755 41   5.0 0.9 5.9 .078 .014 .092 5.61 1934 7 7 Dick Porter
1934 9 Carl Reynolds   BOS 4 R 31 CF   33 65 2 2 1 .971   1934 9 Carl Reynolds 135 41 8 3 1 20 28 9 9 1 1 2 1 .304 .352 .430 .782 22   3.0 0.8 3.8 .091 .024 .115 4.05 1934 9 Carl Reynolds
1934 13 Moose Solters R   BOS 4 R 28 CF   26 47 4 5 0 .911   1934 13 Moose Solters 107 32 7 1 2 18 17 5 15 0 0 3 1 .299 .330 .439 .769 17   2.1 0.5 2.6 .081 .019 .100 2.58 1934 13 Moose Solters
1934 15 Dusty Cooke   BOS 4 L 27   21 34 1 1 0 .972   1934 15 Dusty Cooke 80 20 4 2 0 16 12 17 12 0 0 3 1 .250 .381 .350 .731 14   1.8 0.4 2.2 .086 .019 .105 2.24 1934 15 Dusty Cooke
       
Pos St All- Other Right Field Fielding Stats Pos St Batting Statistics as Right Fielder Win Shares Pos St
Year Rank Rank Name HOF MVP Star Rookie GG SS Team Stdg Bats Age Pos Games PO Assts Err DP F Pct. Year Rank Rank Name At Bats Hits 2B 3B HR Runs RBI BB IBB SO HP SH SF SB CS GDP BA OBA SA OPS RC B WS F WS T WS BWS/G FWS/G TWS/G Adj WSQ Year Rank Rank Name
1935 8 8 Carl Reynolds   BOS 4 R 32   60 139 7 4 0 .973   1935 8 8 Carl Reynolds 229 62 12 4 6 31 33 23 19 0 5 4 1 .271 .337 .437 .774 32   3.6 2.5 6.1 .060 .042 .102 5.67 1935 8 8 Carl Reynolds
1935 10 Dusty Cooke   BOS 4 L 28 CF   44 78 2 3 1 .964   1935 10 Dusty Cooke 150 46 9 3 2 26 17 24 12 0 3 3 4 .307 .402 .447 .849 25   3.5 1.1 4.6 .080 .025 .105 4.34 1935 10 Dusty Cooke
1935 12 Bing Miller   BOS 4 R 40   28 46 2 2 0 .960   1935 12 Bing Miller 133 41 8 1 3 17 25 10 8 1 5 0 1 .308 .361 .451 .812 19   2.3 0.7 3.0 .082 .025 .107 2.87 1935 12 Bing Miller
1935 13 Mel Almada   BOS 4 L 22 CF   25 44 4 2 1 .960   1935 13 Mel Almada 99 29 4 1 0 14 10 9 6 0 2 3 1 .293 .352 .354 .706 13   1.3 0.7 2.0 .052 .028 .080 1.65 1935 13 Mel Almada
       
1936 9 7 Dusty Cooke   BOS 6 L 29 LF   67 150 2 4 2 .974   1936 9 7 Dusty Cooke 248 68 15 2 4 42 34 52 35 1 0 3 2 .274 .402 .399 .801 43   4.7 1.9 6.6 .070 .028 .099 6.13 1936 9 7 Dusty Cooke
1936 16 Mel Almada   BOS 6 L 23   69 118 8 2 2 .984   1936 16 Mel Almada 266 67 13 3 1 33 17 20 12 0 2 2 3 .252 .304 .335 .639 27   0.7 1.9 2.6 .010 .028 .038 1.50 1936 16 Mel Almada
       
1937 7 7 Ben Chapman   BOS 5 R 28 CF   100 227 8 4 1 .983   1937 7 7 Ben Chapman 374 115 20 10 6 67 50 50 31 1 5 24 11 .307 .391 .463 .854 70   10.5 2.4 12.9 .105 .024 .129 12.66 1937 7 7 Ben Chapman
1937 13 Fabian Gaffke R   BOS 5 R 23   33 53 2 2 0 .965   1937 13 Fabian Gaffke 121 35 7 3 4 21 22 10 17 0 3 1 1 .289 .344 .496 .840 20   2.6 0.5 3.1 .079 .015 .094 2.59 1937 13 Fabian Gaffke
1937 14 Mel Almada   BOS 5 L 24 CF   21 28 1 2 0 .935   1937 14 Mel Almada 75 18 4 1 1 12 6 10 4 0 1 0 1 .240 .329 .360 .689 9   1.0 0.5 1.5 .048 .024 .071 0.99 1937 14 Mel Almada
       
1938 1 1 Ben Chapman   BOS 2 R 29   125 265 15 10 5 .966   1938 1 1 Ben Chapman 472 160 39 8 6 91 79 64 32 0 8 13 6 .339 .418 .494 .912 99   15.8 3.2 19.0 .126 .026 .152 21.65 1938 1 1 Ben Chapman
1938 11 Red Nonnenkamp R   BOS 2 L 26   29 61 4 2 1 .970   1938 11 Red Nonnenkamp 119 34 3 1 0 24 12 14 9 0 2 4 1 .286 .361 .328 .689 15   1.5 0.7 2.2 .052 .024 .076 1.77 1938 11 Red Nonnenkamp
       
1939 1 1 Ted Williams BBW 4 R   BOS 2 L 20   149 318 11 19 3 .945   1939 1 1 Ted Williams 565 185 44 11 31 131 145 107 64 2 3 2 1 10 .327 .436 .609 1.045 153   29.5 2.7 32.2 .198 .018 .216 40.11 1939 1 1 Ted Williams
       
1940 6 5 Lou Finney T29 a   BOS T4 L 29 1B   69 148 10 4 0 .975   1940 6 5 Lou Finney 307 98 18 9 3 42 42 19 7 0 4 3 1 9 .319 .359 .466 .825 49   7.2 1.5 8.7 .104 .022 .126 8.50 1940 6 5 Lou Finney
1940 17 Doc Cramer a   BOS T4 L 34 CF   37 68 3 3 1 .959   1940 17 Doc Cramer 164 50 7 3 0 23 13 9 7 0 3 1 1 3 .305 .341 .384 .725 21   2.4 0.5 2.9 .065 .014 .078 2.23 1940 17 Doc Cramer
1940 13 Dom DiMaggio R   BOS T4 R 23 CF   26 54 5 2 2 .967   1940 13 Dom DiMaggio 113 34 9 2 2 22 12 11 12 1 1 2 2 1 .301 .368 .469 .837 19   3.0 0.6 3.6 .115 .023 .138 3.69 1940 13 Dom DiMaggio
       
1941 9 8 Lou Finney   BOS 2 L 30 1B   91 179 7 11 2 .944   1941 9 8 Lou Finney 390 112 19 8 3 65 42 30 13 1 7 2 4 10 .287 .340 .400 .740 52   6.5 1.5 8.0 .071 .016 .088 6.19 1941 9 8 Lou Finney
1941 10 Pete Fox   BOS 2 R 32   49 95 4 3 2 .971   1941 10 Pete Fox 212 64 9 6 0 30 25 17 25 2 4 7 2 3 .302 .359 .401 .760 32   4.7 0.9 5.6 .096 .018 .114 4.94 1941 10 Pete Fox
       
1942 8 7 Lou Finney   BOS 2 L 31   92 190 8 5 1 .975   1942 8 7 Lou Finney 373 106 15 7 3 54 57 27 10 1 4 3 3 8 .284 .334 .386 .720 47   7.4 2.5 9.9 .080 .027 .108 9.31 1942 8 7 Lou Finney
1942 11 Pete Fox   BOS 2 R 33   64 100 2 4 0 .962   1942 11 Pete Fox 231 60 14 5 3 38 38 18 25 3 6 7 6 7 .260 .321 .403 .724 27   3.5 1.2 4.7 .055 .019 .073 3.65 1942 11 Pete Fox
       
1943 5 5 Pete Fox T33   BOS 7 R 34   122 255 10 11 2 .960   1943 5 5 Pete Fox 477 138 23 4 2 53 43 33 39 2 18 21 8 11 .289 .338 .367 .705 61   10.4 2.3 12.7 .085 .019 .104 11.26 1943 5 5 Pete Fox
1943 18 Catfish Metkovich R   BOS 7 L 22 CF   25 47 3 2 1 .962   1943 18 Catfish Metkovich 99 24 4 1 2 10 8 6 12 1 3 0 1 2 .242 .292 .364 .656 10   1.4 0.4 1.8 .056 .016 .072 1.33 1943 18 Catfish Metkovich
       
1944 3 3 Pete Fox 15 a-rep   BOS 4 R 35   119 228 7 3 1 .987   1944 3 3 Pete Fox 496 156 37 6 1 70 64 27 34 3 9 10 5 8 .315 .354 .419 .773 76   14.9 1.9 16.8 .125 .016 .141 18.65 1944 3 3 Pete Fox
1944 16 Tom McBride R   BOS 4 R 29 LF   22 39 3 0 1 1.000   1944 16 Tom McBride 74 18 2 1 0 10 8 3 4 0 2 1 0 2 .243 .273 .297 .570 6   0.4 0.4 0.8 .018 .018 .036 0.45 1944 16 Tom McBride
       
1945 4 4 Johnny Lazor   BOS 7 L 32   73 121 5 5 0 .962   1945 4 4 Johnny Lazor 288 89 16 2 4 30 39 15 15 0 2 3 2 3 .309 .343 .420 .763 40   9.4 0.9 10.3 .129 .012 .141 9.82 1945 4 4 Johnny Lazor
1945 15 Pete Fox   BOS 7 R 36   57 84 5 1 1 .989   1945 15 Pete Fox 208 51 4 1 0 21 20 11 18 4 4 2 2 0 .245 .296 .274 .570 17   1.8 0.8 2.6 .032 .014 .046 1.41 1945 15 Pete Fox
1945 14 Tom McBride   BOS 7 R 30 CF   22 38 3 1 1 .976   1945 14 Tom McBride 77 24 2 2 0 9 11 6 4 0 1 0 0 2 .312 .361 .390 .751 10   2.1 0.3 2.4 .095 .014 .109 2.01 1945 14 Tom McBride
       
1946 8 7 Catfish Metkovich   BOS 1 L 25   73 112 3 6 0 .950   1946 8 7 Catfish Metkovich 253 62 14 2 4 38 23 32 35 1 2 7 3 2 .245 .332 .364 .696 33   5.6 1.2 6.8 .077 .016 .093 5.55 1946 8 7 Catfish Metkovich
1946 10 Wally Moses   BOS 1 L 35   43 87 3 2 1 .978   1946 10 Wally Moses 167 34 11 3 2 22 16 13 14 1 1 2 4 1 .204 .265 .341 .606 15   2.4 1.0 3.4 .056 .023 .079 2.51 1946 10 Wally Moses
1946 16 Tom McBride   BOS 1 R 31   32 46 1 0 0 1.000   1946 16 Tom McBride 111 33 4 1 0 15 14 7 4 0 2 0 1 4 .297 .339 .351 .690 13   2.0 0.6 2.6 .063 .019 .081 1.98 1946 16 Tom McBride
1946 14 Leon Culberson   BOS 1 R 26   26 41 1 2 0 .955   1946 14 Leon Culberson 86 27 5 0 1 16 9 8 9 0 4 1 1 2 .314 .372 .407 .779 13   2.8 0.4 3.2 .108 .015 .123 3.01 1946 14 Leon Culberson
       
1947 6 5 Sam Mele R   BOS 3 R 24 CF   87 158 8 2 1 .988   1947 6 5 Sam Mele 328 99 10 6 9 51 53 27 25 1 4 0 2 8 .302 .357 .451 .808 50   9.1 1.6 10.7 .105 .018 .123 10.40 1947 6 5 Sam Mele
1947 10 Wally Moses   BOS 3 L 36   58 109 2 3 0 .974   1947 10 Wally Moses 255 70 18 2 2 32 27 27 16 0 3 3 0 6 .275 .344 .384 .728 34   5.6 1.0 6.6 .097 .017 .114 6.17 1947 10 Wally Moses
       
Pos St All- Other Right Field Fielding Stats Pos St Batting Statistics as Right Fielder Win Shares Pos St
Year Rank Rank Name HOF MVP Star Rookie GG SS Team Stdg Bats Age Pos Games PO Assts Err DP F Pct. Year Rank Rank Name At Bats Hits 2B 3B HR Runs RBI BB IBB SO HP SH SF SB CS GDP BA OBA SA OPS RC B WS F WS T WS BWS/G FWS/G TWS/G Adj WSQ Year Rank Rank Name
1948 7 6 Stan Spence   BOS 2 L 33 LF   70 153 3 4 1 .975   1948 7 6 Stan Spence 253 60 11 3 8 46 40 53 21 0 3 0 1 5 .237 .369 .399 .768 42   6.5 1.3 7.8 .093 .019 .111 7.20 1948 7 6 Stan Spence
1948 11 Wally Moses   BOS 2 L 37   45 101 2 2 1 .981   1948 11 Wally Moses 189 49 12 1 2 26 29 21 19 2 0 5 0 1 .259 .340 .365 .705 28   4.1 0.9 5.0 .091 .020 .111 4.61 1948 11 Wally Moses
1948 19 Sam Mele   BOS 2 R 25   52 94 2 3 0 .970   1948 19 Sam Mele 170 40 11 1 2 24 24 12 20 2 3 1 1 5 .235 .293 .347 .640 18   1.0 0.8 1.8 .019 .015 .035 0.93 1948 19 Sam Mele
       
1949 5 6 Al Zarilla   BOS 2 L 30   119 232 6 4 4 .983   1949 5 6 Al Zarilla 459 129 30 4 9 66 69 46 47 4 1 4 4 13 .281 .352 .423 .775 68   9.3 2.0 11.3 .078 .017 .095 10.09 1949 5 6 Al Zarilla
1949 15 Tommy O'Brien   BOS 2 R 30   25 41 2 1 0 .977   1949 15 Tommy O'Brien 95 21 4 0 2 18 8 16 9 0 2 1 0 3 .221 .333 .326 .659 11   1.0 0.4 1.4 .040 .016 .056 0.98 1949 15 Tommy O'Brien
       
1950 2 2 Al Zarilla   BOS 3 L 31   128 230 12 6 1 .976   1950 2 2 Al Zarilla 471 153 32 10 9 92 74 76 47 4 5 2 3 5 .325 .423 .493 .916 105   17.4 2.5 19.9 .136 .020 .155 22.78 1950 2 2 Al Zarilla
       
1951 5 4 Clyde Vollmer   BOS 3 R 29   97 182 5 3 0 .984   1951 5 4 Clyde Vollmer 350 88 8 2 20 60 77 50 60 1 3 0 0 18 .251 .347 .457 .804 54   7.5 1.8 9.3 .077 .019 .096 8.55 1951 5 4 Clyde Vollmer
1951 11 Billy Goodman 18   BOS 3 L 25 1B,2B   36 66 9 2 2 .974   1951 11 Billy Goodman 136 40 8 1 0 23 12 20 9 0 3 2 1 3 .294 .385 .368 .753 22   3.4 0.7 4.1 .094 .019 .114 4.11 1951 11 Billy Goodman
       
1952 9 8 Faye Throneberry R   BOS 6 L 21   71 115 8 6 4 .953   1952 9 8 Faye Throneberry 256 66 9 2 4 31 19 27 55 1 0 13 6 1 .258 .331 .355 .686 34   5.0 1.4 6.4 .070 .020 .090 5.41 1952 9 8 Faye Throneberry
1952 11 Clyde Vollmer   BOS 6 R 30 LF   21 40 1 0 0 1.000   1952 11 Clyde Vollmer 72 19 3 1 3 10 14 11 14 1 0 1 1 4 .264 .369 .458 .827 12   2.1 0.5 2.6 .100 .024 .124 2.58 1952 11 Clyde Vollmer
1952 16 Jimmy Piersall R   BOS 6 R 22 SS   21 36 3 0 0 1.000   1952 16 Jimmy Piersall 64 17 3 0 0 11 6 11 10 0 2 1 1 1 .266 .373 .313 .686 9   1.4 0.3 1.7 .067 .014 .081 1.36 1952 16 Jimmy Piersall
1952 15 Hoot Evers   BOS 6 R 31 LF   20 35 1 1 1 .973   1952 15 Hoot Evers 66 17 3 1 2 9 10 5 9 1 1 1 0 2 .258 .319 .424 .743 9   1.3 0.4 1.7 .065 .020 .085 1.40 1952 15 Hoot Evers
       
1953 6 6 Jimmy Piersall 9   BOS 4 R 23   150 344 15 5 7 .986   1953 6 6 Jimmy Piersall 574 156 21 9 3 75 51 40 51 9 19 11 10 12 .272 .329 .355 .684 66   6.7 5.2 11.9 .045 .035 .079 10.18 1953 6 6 Jimmy Piersall
       
1954 5 4 Jimmy Piersall a   BOS 4 R 24 CF   96 180 8 3 2 .984   1954 5 4 Jimmy Piersall 370 105 15 2 8 61 28 25 0 35 1 3 1 3 1 10 .284 .330 .400 .730 48   6.5 1.8 8.3 .068 .019 .086 7.39 1954 5 4 Jimmy Piersall
1954 9 Jackie Jensen 14   BOS 4 R 27 CF   44 60 1 1 0 .984   1954 9 Jackie Jensen 159 46 9 1 4 30 24 19 0 11 0 1 4 6 1 9 .289 .357 .434 .791 24   3.8 0.6 4.4 .086 .014 .100 4.21 1954 9 Jackie Jensen
       
1955 4 4 Jackie Jensen 10 a   BOS 4 R 28   150 281 11 7 3 .977   1955 4 4 Jackie Jensen 574 158 27 6 26 95 116 87 8 63 3 3 12 16 7 20 .275 .367 .479 .846 99   14.0 4.6 18.6 .093 .031 .124 17.50 1955 4 4 Jackie Jensen
       
1956 2 2 Jackie Jensen 20   BOS 4 R 29   151 291 13 12 2 .962   1956 2 2 Jackie Jensen 578 182 23 11 20 80 97 89 5 43 1 1 4 11 3 23 .315 .405 .497 .902 106   19.2 3.9 23.1 .127 .026 .153 24.96 1956 2 2 Jackie Jensen
       
1957 1 1 Jackie Jensen   BOS 3 R 30   142 247 16 11 4 .960   1957 1 1 Jackie Jensen 531 149 28 2 23 81 103 74 3 65 2 1 5 8 5 21 .281 .368 .471 .839 90   15.3 3.1 18.4 .108 .022 .130 19.68 1957 1 1 Jackie Jensen
       
1958 2 2 Jackie Jensen 1 A   BOS 3 R 31   153 291 14 6 3 .981   1958 2 2 Jackie Jensen 542 155 30 0 35 83 122 98 7 64 3 1 4 9 5 13 .286 .396 .535 .931 113   23.9 3.4 27.3 .156 .022 .178 30.31 1958 2 2 Jackie Jensen
       
1959 3 3 Jackie Jensen 10 G   BOS 5 R 32   142 288 12 6 4 .980   1959 3 3 Jackie Jensen 507 141 29 0 27 98 106 86 3 65 0 1 11 20 5 19 .278 .376 .495 .871 97   17.5 3.3 20.8 .123 .023 .146 21.31 1959 3 3 Jackie Jensen
       
1960 13 8 Lou Clinton R   BOS 7 R 22   89 165 4 6 2 .966   1960 13 8 Lou Clinton 291 67 17 5 6 34 37 21 1 62 3 5 6 4 3 13 .230 .283 .385 .668 28   1.6 1.1 2.7 .018 .012 .030 1.30 1960 13 8 Lou Clinton
1960 6 Gary Geiger   BOS 7 L 23   59 108 8 0 1 1.000   1960 6 Gary Geiger 206 62 11 3 8 30 30 20 0 30 3 2 0 2 1 6 .301 .371 .500 .871 38   7.1 1.0 8.1 .120 .017 .137 8.29 1960 6 Gary Geiger
       
1961 7 7 Jackie Jensen   BOS 6 R 34   129 271 12 3 2 .990   1961 7 7 Jackie Jensen 484 129 21 2 12 62 64 66 2 68 2 2 4 9 9 16 .267 .354 .393 .747 66   9.7 3.3 13.0 .075 .026 .101 11.06 1961 7 7 Jackie Jensen
1961 17 Carroll Hardy   BOS 6 R 28 LF,CF   21 41 5 1 3 .979   1961 17 Carroll Hardy 78 20 4 0 2 13 13 9 0 15 1 1 0 2 1 1 .256 .341 .385 .726 11   1.6 0.5 2.1 .076 .024 .100 1.78 1961 17 Carroll Hardy
       
1962 3 3 Lou Clinton   BOS 8 R 24   103 185 6 4 1 .979   1962 3 3 Lou Clinton 389 115 24 10 18 61 74 33 3 77 1 1 2 2 1 6 .296 .351 .548 .899 71   13.7 2.2 15.9 .133 .021 .154 17.06 1962 3 3 Lou Clinton
1962 21 Carroll Hardy   BOS 8 R 29 CF   63 108 5 1 1 .991   1962 21 Carroll Hardy 206 49 10 1 5 27 28 21 0 41 1 0 3 2 4 5 .238 .307 .369 .676 23   2.1 1.5 3.6 .033 .024 .057 2.36 1962 21 Carroll Hardy
       
1963 7 7 Lou Clinton   BOS 7 R 25   146 319 7 6 0 .982   1963 7 7 Lou Clinton 558 130 23 7 22 71 77 49 5 117 1 0 2 0 0 17 .233 .295 .418 .713 62   8.2 4.2 12.4 .056 .029 .085 9.96 1963 7 7 Lou Clinton
       
1964 7 9 Lee Thomas   BOS 8 L 28   107 176 6 1 1 .995   1964 7 9 Lee Thomas 401 103 19 2 13 44 42 34 4 29 4 0 3 2 1 14 .257 .319 .411 .730 47   8.2 1.7 9.9 .077 .016 .093 8.13 1964 7 9 Lee Thomas
1964 8 Lou Clinton   BOS 8 R 26   35 59 6 0 1 1.000   1964 8 Lou Clinton 118 31 4 3 3 15 6 9 1 31 0 1 0 1 0 4 .263 .315 .424 .739 15   2.9 0.9 3.8 .083 .026 .109 3.39 1964 8 Lou Clinton
       
Pos St All- Other Right Field Fielding Stats Pos St Batting Statistics as Right Fielder Win Shares Pos St
Year Rank Rank Name HOF MVP Star Rookie GG SS Team Stdg Bats Age Pos Games PO Assts Err DP F Pct. Year Rank Rank Name At Bats Hits 2B 3B HR Runs RBI BB IBB SO HP SH SF SB CS GDP BA OBA SA OPS RC B WS F WS T WS BWS/G FWS/G TWS/G Adj WSQ Year Rank Rank Name
1965 4 4 Tony Conigliaro T33   BOS 9 R 20   135 273 10 5 1 .983   1965 4 4 Tony Conigliaro 515 138 20 5 32 82 82 47 6 115 5 6 3 4 2 9 .268 .333 .513 .846 82   15.1 2.2 17.3 .112 .016 .128 16.40 1965 4 4 Tony Conigliaro
1965 19 Jim Gosger R   BOS 9 L 22 CF   21 45 1 0 0 1.000   1965 19 Jim Gosger 71 18 4 0 2 12 10 15 1 17 1 0 1 1 0 0 .254 .386 .394 .780 13   1.8 0.4 2.2 .086 .019 .105 1.88 1965 19 Jim Gosger
       
1966 3 3 Tony Conigliaro T28   BOS 9 R 21   146 244 8 7 1 .973   1966 3 3 Tony Conigliaro 554 145 25 7 28 77 93 52 8 112 5 6 7 0 2 6 .262 .327 .484 .811 89   17.7 2.4 20.1 .121 .016 .138 19.19 1966 3 3 Tony Conigliaro
       
1967 4 4 Tony Conigliaro A   BOS 1 R 22   95 172 5 3 1 .983   1967 4 4 Tony Conigliaro 349 100 11 5 20 59 67 27 2 58 5 2 6 4 6 3 .287 .341 .519 .860 62   13.7 2.3 16.0 .144 .024 .168 17.48 1967 4 4 Tony Conigliaro
1967 25 Jose Tartabull   BOS 1 L 28   54 52 3 0 1 1.000   1967 25 Jose Tartabull 132 29 1 2 0 13 4 9 0 17 0 3 1 2 2 3 .220 .268 .258 .526 9   0.1 0.7 0.8 .002 .013 .015 0.26 1967 25 Jose Tartabull
1967 19 Ken Harrelson   BOS 1 R 25 1B   23 25 1 2 0 .929   1967 19 Ken Harrelson 79 16 4 1 3 12 14 5 2 12 0 0 0 1 1 2 .203 .250 .392 .642 7   1.5 0.4 1.9 .065 .017 .083 1.45 1967 19 Ken Harrelson
1967 26 George Thomas   BOS 1 R 29 LF   20 21 0 1 0 .955   1967 26 George Thomas 33 8 2 0 0 4 2 2 0 6 1 1 0 0 1 0 .242 .306 .303 .609 3   0.1 0.3 0.4 .005 .015 .020 0.15 1967 26 George Thomas
       
1968 2 2 Ken Harrelson 3 a   BOS 4 R 26   132 241 8 0 1 1.000   1968 2 2 Ken Harrelson 469 120 14 4 27 66 84 63 8 78 1 0 4 2 5 17 .256 .343 .475 .818 73   19.4 2.6 22.0 .147 .020 .167 24.98 1968 2 2 Ken Harrelson
1968 26 Joe Lahoud R   BOS 4 L 21   22 21 2 1 0 .958   1968 26 Joe Lahoud 69 12 1 0 1 5 5 16 0 13 0 0 0 0 2 1 .174 .329 .232 .561 6   0.8 0.2 1.0 .036 .009 .045 0.59 1968 26 Joe Lahoud
1968 29 Jose Tartabull   BOS 4 L 29   20 22 0 0 0 1.000   1968 29 Jose Tartabull 54 10 0 0 0 6 1 3 0 2 0 0 0 0 1 0 .185 .228 .185 .413 2   0.4 0.2 0.6 .020 .010 .030 0.29 1968 29 Jose Tartabull
       
1969 7 7 Tony Conigliaro   BOS 3E R 24   136 204 4 4 2 .981   1969 7 7 Tony Conigliaro 498 128 21 3 20 57 80 47 6 108 4 3 4 2 4 11 .257 .324 .432 .756 66   10.4 2.2 12.6 .076 .016 .093 9.89 1969 7 7 Tony Conigliaro
1969 27 Joe Lahoud R   BOS 3E L 22 LF   34 52 1 1 0 .981   1969 27 Joe Lahoud 100 17 2 0 5 13 11 14 0 23 0 0 0 1 0 0 .170 .272 .340 .612 10   1.3 0.5 1.8 .038 .015 .053 1.07 1969 27 Joe Lahoud
       
1970 3 3 Tony Conigliaro   BOS 3E R 25   146 252 7 6 1 .977   1970 3 3 Tony Conigliaro 560 149 20 1 36 89 116 43 4 93 8 0 6 4 2 11 .266 .324 .498 .822 88   15.4 2.9 18.3 .105 .020 .125 18.61 1970 3 3 Tony Conigliaro
1970 20 Billy Conigliaro R   BOS 3E R 22 LF,CF   21 31 1 1 0 .970   1970 20 Billy Conigliaro 60 21 3 2 4 14 14 7 0 13 0 1 1 0 1 0 .350 .412 .667 1.079 17   2.8 0.3 3.1 .133 .014 .148 3.42 1970 20 Billy Conigliaro
       
1971 6 5 Reggie Smith T17   BOS 3E B 26 CF   75 141 4 7 2 .954   1971 6 5 Reggie Smith 283 83 15 1 13 48 35 30 3 39 2 1 1 6 1 6 .293 .364 .491 .855 51   11.7 1.6 13.3 .156 .021 .177 14.90 1971 6 5 Reggie Smith
1971 9 Joe Lahoud   BOS 3E L 24   63 134 3 0 3 1.000   1971 9 Joe Lahoud 213 42 6 3 10 30 24 32 1 37 2 1 0 2 2 2 .197 .308 .394 .702 27   5.4 1.5 6.9 .086 .024 .110 6.08 1971 9 Joe Lahoud
       
1972 1 1 Reggie Smith T26 a   BOS 2E B 27   124 232 8 5 2 .980   1972 1 1 Reggie Smith 445 118 23 3 19 71 67 66 12 61 4 0 4 14 4 8 .265 .362 .458 .820 77   22.0 2.2 24.2 .177 .018 .195 30.61 1972 1 1 Reggie Smith
1972 19 Ben Oglivie R   BOS 2E L 23 LF   33 52 1 1 1 .981   1972 19 Ben Oglivie 124 33 3 1 6 18 16 6 0 21 0 0 1 0 1 0 .266 .298 .452 .750 17   3.5 0.5 4.0 .106 .015 .121 3.99 1972 19 Ben Oglivie
       
1973 12 9 Dwight Evans R   BOS 2E R 21   94 161 4 1 0 .994   1973 12 9 Dwight Evans 258 57 13 1 10 43 31 39 2 46 1 3 2 4 0 8 .221 .323 .395 .718 34   4.7 2.4 7.1 .050 .026 .076 5.69 1973 12 9 Dwight Evans
1973 10 Rick Miller   BOS 2E L 25 CF   60 127 2 3 1 .977   1973 10 Rick Miller 211 60 8 2 5 37 19 22 1 22 2 1 2 5 2 2 .284 .354 .412 .766 33   4.9 1.6 6.5 .082 .027 .108 6.24 1973 10 Rick Miller
1973 31 Ben Oglivie   BOS 2E L 24   29 54 2 1 0 .982   1973 31 Ben Oglivie 97 25 6 1 2 10 7 4 1 21 0 0 1 0 0 2 .258 .284 .402 .686 11   0.4 0.8 1.2 .014 .028 .041 0.72 1973 31 Ben Oglivie
       
1974 6 6 Dwight Evans   BOS 3E R 22   120 292 8 3 2 .990   1974 6 6 Dwight Evans 419 114 19 5 9 49 59 34 2 72 2 6 4 4 3 9 .272 .327 .406 .733 55   9.5 3.8 13.3 .079 .032 .111 12.50 1974 6 6 Dwight Evans
1974 10 Bernie Carbo   BOS 3E L 26 LF   56 108 3 1 1 .991   1974 10 Bernie Carbo 165 41 10 0 6 19 38 32 4 43 3 1 1 1 2 2 .248 .378 .418 .796 28   5.2 1.4 6.6 .093 .025 .118 6.40 1974 10 Bernie Carbo
       
1975 4 4 Dwight Evans   BOS 1E R 23   115 281 15 4 8 .987   1975 4 4 Dwight Evans 383 107 22 6 13 58 56 41 1 54 4 4 2 3 3 9 .279 .353 .470 .823 63   11.8 4.0 15.8 .103 .035 .137 16.55 1975 4 4 Dwight Evans
1975 8 Bernie Carbo   BOS 1E L 27 LF   47 81 4 1 0 .988   1975 8 Bernie Carbo 149 38 9 2 4 32 18 37 2 32 0 1 2 0 0 3 .255 .399 .423 .822 28   6.2 1.1 7.3 .132 .023 .155 8.13 1975 8 Bernie Carbo
1975 24 Rick Miller   BOS 1E L 27 LF   25 42 0 1 0 .977   1975 24 Rick Miller 45 12 0 0 0 5 5 7 3 6 0 2 0 2 1 2 .267 .365 .267 .632 4   0.1 0.5 0.6 .004 .020 .024 0.27 1975 24 Rick Miller
       
1976 5 5 Dwight Evans G   BOS 3E R 24   141 301 15 2 4 .994   1976 5 5 Dwight Evans 474 112 33 5 15 55 57 53 3 87 6 3 3 5 7 10 .236 .319 .422 .741 63   10.3 3.5 13.8 .073 .025 .098 12.71 1976 5 5 Dwight Evans
1976 23 Rick Miller   BOS 3E L 28 LF,CF   21 50 0 1 0 .980   1976 23 Rick Miller 61 19 5 0 0 9 7 6 1 13 0 0 2 3 2 2 .311 .362 .393 .755 8   1.2 0.6 1.8 .057 .029 .086 1.55 1976 23 Rick Miller
       
1977 11 10 Bernie Carbo   BOS T2E L 29   59 104 4 5 0 .956   1977 11 10 Bernie Carbo 176 50 5 1 7 24 18 37 2 56 0 0 0 0 2 3 .284 .408 .443 .851 34   6.7 1.1 7.8 .114 .019 .132 7.51 1977 11 10 Bernie Carbo
1977 12 Dwight Evans   BOS T2E R 25   54 93 2 1 0 .990   1977 12 Dwight Evans 168 47 8 1 10 28 24 21 0 40 0 4 1 3 2 2 .280 .358 .518 .876 32   5.7 1.2 6.9 .106 .022 .128 6.54 1977 12 Dwight Evans
1977 28 Rick Miller   BOS T2E L 29 CF   48 63 3 1 2 .985   1977 28 Rick Miller 104 29 3 2 0 14 11 12 0 12 0 4 0 4 3 1 .279 .353 .346 .699 13   1.3 0.9 2.2 .027 .019 .046 1.25 1977 28 Rick Miller
1977 16 Jim Rice BBW 4 a   BOS T2E R 24 DH   27 40 2 3 1 .933   1977 16 Jim Rice 103 33 7 1 5 15 19 10 3 16 0 0 2 0 0 2 .320 .374 .553 .927 21   4.0 0.5 4.5 .148 .019 .167 4.87 1977 16 Jim Rice
       
1978 6 6 Dwight Evans a G   BOS 2E R 26   140 300 14 6 2 .981   1978 6 6 Dwight Evans 481 117 24 2 22 72 59 61 2 116 2 5 2 8 5 15 .243 .330 .439 .769 68   11.9 3.6 15.5 .085 .026 .111 14.40 1978 6 6 Dwight Evans
       
Pos St All- Other Right Field Fielding Stats Pos St Batting Statistics as Right Fielder Win Shares Pos St
Year Rank Rank Name HOF MVP Star Rookie GG SS Team Stdg Bats Age Pos Games PO Assts Err DP F Pct. Year Rank Rank Name At Bats Hits 2B 3B HR Runs RBI BB IBB SO HP SH SF SB CS GDP BA OBA SA OPS RC B WS F WS T WS BWS/G FWS/G TWS/G Adj WSQ Year Rank Rank Name
1979 6 5 Dwight Evans G   BOS 3E R 27   148 306 15 4 5 .988   1979 6 5 Dwight Evans 482 132 24 1 21 68 57 69 7 75 1 3 1 6 8 14 .274 .365 .459 .824 77   11.4 4.2 15.6 .077 .028 .105 13.93 1979 6 5 Dwight Evans
       
1980 5 5 Dwight Evans BOS 4E R 28   144 268 11 5 7 .982   1980 5 5 Dwight Evans 454 122 37 5 18 71 60 62 6 94 5 6 4 3 1 5 .269 .360 .491 .851 78   14.6 2.7 17.3 .101 .019 .120 17.79 1980 5 5 Dwight Evans
1980 22 Jim Dwyer BOS 4E L 30 CF   27 33 4 2 1 .949   1980 22 Jim Dwyer 75 20 2 0 4 11 14 7 2 6 0 0 1 0 0 3 .267 .325 .453 .778 10   1.8 0.3 2.1 .067 .011 .078 1.74 1980 22 Jim Dwyer
     
1981 1 1 Dwight Evans 3 a G S BOS 5E R 29   107 259 9 2 1 .993   1981 1 1 Dwight Evans 412 122 19 4 22 84 71 85 1 85 1 3 3 3 2 8 .296 .415 .522 .937 91   22.5 3.4 25.9 .210 .032 .242 35.23 1981 1 1 Dwight Evans
     
1982 1 1 Dwight Evans 7 G BOS 3E R 30   161 346 9 10 3 .973   1982 1 1 Dwight Evans 605 178 37 7 32 124 98 111 1 124 1 3 2 3 2 17 .294 .403 .537 .940 127   27.0 3.8 30.8 .168 .024 .191 39.61 1982 1 1 Dwight Evans
     
1983 5 5 Dwight Evans G BOS 6E R 31 DH   99 222 6 3 1 .987   1983 5 5 Dwight Evans 381 93 17 4 18 65 48 62 4 80 2 0 1 2 0 12 .244 .352 .451 .803 61   9.9 2.0 11.9 .100 .020 .120 13.38 1983 5 5 Dwight Evans
1983 28 Rick Miller BOS 6E L 35 CF   41 82 2 1 1 .988   1983 28 Rick Miller 136 27 4 1 1 15 3 12 0 19 0 1 0 2 0 2 .199 .264 .265 .529 10   1.5 0.8 2.3 .037 .020 .056 1.77 1983 28 Rick Miller
1983 19 Reid Nichols BOS 6E R 24 CF   30 62 3 0 1 1.000   1983 19 Reid Nichols 104 27 8 0 3 14 6 9 1 14 1 1 0 2 2 2 .260 .325 .423 .748 14   2.4 0.6 3.0 .080 .020 .100 3.07 1983 19 Reid Nichols
     
1984 1 1 Dwight Evans 11 G BOS 4E R 32   161 311 7 2 2 .994   1984 1 1 Dwight Evans 626 186 37 8 32 122 104 96 2 115 4 1 7 3 1 18 .297 .390 .535 .925 124   24.6 4.2 28.8 .153 .026 .179 33.78 1984 1 1 Dwight Evans
     
1985 4 4 Dwight Evans G BOS 5E R 33   152 291 9 3 1 .990   1985 4 4 Dwight Evans 591 159 29 1 27 107 74 108 4 102 5 1 6 7 2 16 .269 .383 .459 .842 105   17.8 2.8 20.6 .117 .018 .136 21.95 1985 4 4 Dwight Evans
     
1986 2 2 Dwight Evans BOS 1E R 34   149 280 10 5 3 .983   1986 2 2 Dwight Evans 525 136 33 2 26 85 97 95 4 115 6 2 6 3 3 11 .259 .375 .478 .853 98   20.2 3.3 23.5 .136 .022 .158 26.87 1986 2 2 Dwight Evans
     
1987 7 7 Dwight Evans 4 a S BOS 5E R 35 1B   77 134 5 1 0 .993   1987 7 7 Dwight Evans 253 72 18 1 13 39 59 47 1 42 0 0 1 3 2 3 .285 .395 .518 .913 55   10.4 0.8 11.2 .135 .010 .145 12.87 1987 7 7 Dwight Evans
1987 19 Todd Benzinger R BOS 5E B 24   47 112 3 1 2 .991   1987 19 Todd Benzinger 167 47 8 1 5 22 33 15 3 28 1 3 3 3 3 5 .281 .339 .431 .770 23   3.2 1.1 4.3 .068 .023 .091 3.91 1987 19 Todd Benzinger
1987 15 Mike Greenwell R-4 BOS 5E L 23 LF   28 42 1 1 0 .977   1987 15 Mike Greenwell 96 33 6 3 5 15 20 5 0 8 1 0 0 3 1 0 .344 .382 .625 1.007 24   4.4 0.3 4.7 .157 .011 .168 5.80 1987 15 Mike Greenwell
1987 31 Dave Henderson BOS 5E R 28 CF   30 43 0 1 0 .977   1987 31 Dave Henderson 68 16 3 0 3 8 11 3 0 15 0 0 1 0 1 1 .235 .264 .412 .676 7   1.1 0.2 1.3 .037 .007 .043 0.82 1987 31 Dave Henderson
     
1988 6 6 Dwight Evans 9 BOS 1E R 36 1B   84 151 4 2 0 .987   1988 6 6 Dwight Evans 301 85 17 6 17 64 68 38 0 56 1 2 2 3 0 7 .282 .363 .548 .911 61   11.9 1.3 13.2 .142 .015 .157 14.02 1988 6 6 Dwight Evans
1988 19 Todd Benzinger BOS 1E B 25 1B   43 72 0 1 0 .986   1988 19 Todd Benzinger 141 37 11 0 5 19 27 9 2 30 0 3 1 0 1 4 .262 .305 .447 .752 18   2.0 0.5 2.5 .047 .012 .058 1.62 1988 19 Todd Benzinger
1988 23 Brady Anderson R BOS 1E L 24 CF   25 48 3 0 1 1.000   1988 23 Brady Anderson 84 15 4 2 0 10 5 10 0 21 0 2 1 3 1 1 .179 .263 .274 .537 7   0.7 0.4 1.1 .028 .016 .044 0.62 1988 23 Brady Anderson
1988 30 Kevin Romine R BOS 1E R 27   38 31 0 2 0 .939   1988 30 Kevin Romine 51 12 1 1 1 8 6 6 0 10 0 0 0 1 0 2 .235 .316 .353 .669 6   - 0.2 0.2 .000 .005 .005 0.04 1988 30 Kevin Romine
     
1989 4 2 Dwight Evans BOS 3E R 37 DH   77 153 5 3 1 .981   1989 4 2 Dwight Evans 266 72 13 2 10 39 46 54 1 47 1 0 4 3 2 7 .271 .391 .447 .838 50   9.9 1.4 11.3 .129 .018 .147 12.87 1989 4 2 Dwight Evans
1989 19 Danny Heep BOS 3E L 31   59 73 1 1 1 .987   1989 19 Danny Heep 167 53 9 0 2 19 31 18 3 13 1 2 2 0 0 8 .317 .383 .407 .790 25   4.1 0.7 4.8 .069 .012 .081 4.08 1989 19 Danny Heep
1989 36 Kevin Romine BOS 3E R 28 CF   32 47 1 3 0 .941   1989 36 Kevin Romine 68 19 3 0 0 3 1 4 1 18 0 1 0 0 0 2 .279 .319 .324 .643 7   0.6 0.5 1.1 .019 .016 .034 0.60 1989 36 Kevin Romine
1989 33 Randy Kutcher BOS 3E R 29 CF   25 42 0 2 0 .955   1989 33 Randy Kutcher 51 15 2 3 1 9 10 5 0 11 0 1 0 0 0 0 .294 .357 .510 .867 10   1.0 0.5 1.5 .040 .020 .060 1.09 1989 33 Randy Kutcher
     
1990 5 5 Tom Brunansky BOS 1E R 29   121 267 7 5 1 .982   1990 5 5 Tom Brunansky 438 120 23 5 15 59 69 49 5 98 3 0 7 4 9 13 .274 .346 .452 .798 57   8.7 3.1 11.8 .072 .026 .098 11.06 1990 5 5 Tom Brunansky
1990 33 Kevin Romine BOS 1E R 29   30 34 0 0 0 1.000   1990 33 Kevin Romine 62 16 4 0 1 8 5 6 0 7 0 0 1 3 0 3 .258 .319 .371 .690 7   0.8 0.3 1.1 .027 .010 .037 0.63 1990 33 Kevin Romine
1990 35 Randy Kutcher BOS 1E R 30   23 28 0 0 0 1.000   1990 35 Randy Kutcher 27 6 2 1 1 7 4 7 0 3 0 0 0 0 1 1 .222 .382 .481 .863 5   0.3 0.4 0.7 .013 .017 .030 0.36 1990 35 Randy Kutcher
     
1991 9 9 Tom Brunansky BOS 2E R 30   136 265 5 3 2 .989   1991 9 9 Tom Brunansky 454 103 23 1 16 53 70 47 2 72 3 0 8 1 2 7 .227 .299 .388 .687 54   7.0 3.3 10.3 .051 .024 .076 7.91 1991 9 9 Tom Brunansky
1991 10 Phil Plantier R-T8 BOS 2E L 22   26 50 1 1 0 .981   1991 10 Phil Plantier 74 25 4 1 5 14 14 13 0 17 1 0 0 0 0 1 .338 .443 .622 1.065 21   5.1 0.7 5.8 .196 .027 .223 7.65 1991 10 Phil Plantier
     
1992 8 6 Tom Brunansky BOS 7E R 31 1B   92 189 6 4 3 .980   1992 8 6 Tom Brunansky 326 82 25 3 11 34 49 42 1 75 0 0 5 0 3 9 .252 .332 .448 .780 48   8.4 2.2 10.6 .091 .024 .115 10.61 1992 8 6 Tom Brunansky
1992 19 Phil Plantier BOS 7E L 23 DH   63 128 6 2 0 .985   1992 19 Phil Plantier 215 47 15 0 5 28 21 32 5 53 2 1 0 1 3 8 .219 .325 .358 .683 24   1.9 1.7 3.6 .030 .027 .057 2.54 1992 19 Phil Plantier
1992 28 Bob Zupcic R BOS 7E R 25 LF,CF   22 29 1 0 1 1.000   1992 28 Bob Zupcic 45 9 2 0 0 5 3 6 0 5 0 0 0 0 2 0 .200 .294 .244 .538 3   0.4 0.5 0.9 .018 .023 .041 0.54 1992 28 Bob Zupcic
     
Pos St All- Other Right Field Fielding Stats Pos St Batting Statistics as Right Fielder Win Shares Pos St
Year Rank Rank Name HOF MVP Star Rookie GG SS Team Stdg Bats Age Pos Games PO Assts Err DP F Pct. Year Rank Rank Name At Bats Hits 2B 3B HR Runs RBI BB IBB SO HP SH SF SB CS GDP BA OBA SA OPS RC B WS F WS T WS BWS/G FWS/G TWS/G Adj WSQ Year Rank Rank Name
1993 33 14 Carlos Quintana BOS 5E R 27 1B   50 91 4 0 1 1.000   1993 33 14 Carlos Quintana 164 43 3 0 1 23 10 22 2 25 2 3 1 1 0 5 .262 .354 .299 .653 19   - 1.1 1.1 .000 .022 .022 0.50 1993 33 14 Carlos Quintana
1993 T23 Bob Zupcic BOS 5E R 26 LF,CF   54 78 4 2 1 .976   1993 T23 Bob Zupcic 105 27 10 1 1 9 12 9 1 21 1 4 0 1 0 0 .257 .322 .400 .722 15   1.2 1.2 2.4 .022 .022 .044 1.56 1993 T23 Bob Zupcic
1993 15 Rob Deer BOS 5E R 32   36 95 2 3 0 .970   1993 15 Rob Deer 133 27 6 1 7 17 16 18 0 44 2 0 0 2 0 1 .203 .307 .421 .728 19   1.4 1.0 2.4 .039 .028 .067 1.90 1993 15 Rob Deer
1993 30 Ivan Calderon BOS 5E R 31 DH   39 70 2 0 0 1.000   1993 30 Ivan Calderon 118 28 4 0 1 14 10 13 1 12 1 1 1 2 1 6 .237 .316 .297 .613 11   - 1.3 1.3 .000 .033 .033 0.73 1993 30 Ivan Calderon
1993 25 Andre Dawson BOS 5E R 38 DH   20 42 0 0 0 1.000   1993 25 Andre Dawson 77 23 6 0 0 6 8 3 1 10 1 0 1 1 1 2 .299 .329 .377 .706 9   0.9 0.7 1.6 .045 .035 .080 1.39 1993 25 Andre Dawson
     
1994 22 14 Billy Hatcher BOS 4E R 33 NL-CF   43 87 3 3 1 .968   1994 22 14 Billy Hatcher 161 40 9 1 1 24 18 10 0 12 1 3 2 4 5 3 .248 .293 .335 .628 14   0.2 1.0 1.2 .005 .023 .028 0.56 1994 22 14 Billy Hatcher
1994 21 Wes Chamberlain BOS 4E R 28   34 69 5 0 0 1.000   1994 21 Wes Chamberlain 121 32 7 1 3 9 17 9 1 26 0 0 0 0 2 6 .264 .315 .413 .728 13   0.9 0.9 1.8 .026 .026 .053 1.16 1994 21 Wes Chamberlain
1994 17 Tom Brunansky BOS 4E R 33   33 66 1 0 1 1.000   1994 17 Tom Brunansky 112 28 7 0 6 15 19 11 1 32 0 0 2 0 2 0 .250 .312 .473 .785 16   2.2 0.7 2.9 .067 .021 .088 2.29 1994 17 Tom Brunansky
     
1995 10 9 Troy O'Leary R BOS 1E L 25   91 157 5 4 1 .976   1995 10 9 Troy O'Leary 295 88 25 5 7 47 36 25 4 48 1 1 2 5 3 7 .298 .353 .488 .841 49   7.6 1.7 9.3 .084 .019 .102 8.40 1995 10 9 Troy O'Leary
1995 25 Mark Whiten BOS 1E B 28 NL-RF   31 52 4 0 1 1.000   1995 25 Mark Whiten 107 20 3 0 1 13 10 8 0 22 0 0 1 1 0 5 .187 .241 .243 .484 3   0.5 0.7 1.2 .016 .023 .039 0.67 1995 25 Mark Whiten
1995 26 Willie McGee BOS 1E B 36 CF   47 33 2 1 0 .972   1995 26 Willie McGee 83 26 9 2 1 14 7 4 0 19 0 1 1 1 0 2 .313 .341 .506 .847 14   0.9 0.4 1.3 .019 .009 .028 0.61 1995 26 Willie McGee
     
1996 15 11 Troy O'Leary BOS 3E L 26 LF   110 143 4 4 0 .974   1996 15 11 Troy O'Leary 332 91 21 3 11 49 62 25 1 56 2 1 3 3 2 9 .274 .326 .455 .781 48   6.0 1.3 7.3 .055 .012 .066 5.58 1996 15 11 Troy O'Leary
1996 34 Jose Malave R BOS 3E R 25   30 36 1 1 0 .974   1996 34 Jose Malave 69 16 2 0 3 5 12 2 0 21 1 0 0 0 0 0 .232 .264 .391 .655 7   0.4 0.3 0.7 .013 .010 .023 0.32 1996 34 Jose Malave
1996 27 Darren Bragg BOS 3E L 26 LF,CF   29 32 1 2 0 .943   1996 27 Darren Bragg 45 10 5 0 0 8 3 10 1 7 0 1 0 2 1 1 .222 .364 .333 .697 7   0.9 0.4 1.3 .031 .014 .045 0.81 1996 27 Darren Bragg
1996 23 Kevin Mitchell BOS 3E R 34 NL-LF   21 28 0 2 0 .933   1996 23 Kevin Mitchell 72 21 4 0 2 7 12 8 0 10 1 0 0 0 0 3 .292 .370 .431 .801 11   1.9 0.4 2.3 .090 .019 .110 2.26 1996 23 Kevin Mitchell
     
1997 8 7 Troy O'Leary BOS 4E L 27 LF   119 229 5 4 0 .983   1997 8 7 Troy O'Leary 410 123 24 4 12 52 57 31 4 59 0 0 2 0 3 9 .300 .348 .466 .814 64   10.1 2.0 12.1 .085 .017 .102 10.72 1997 8 7 Troy O'Leary
1997 29 Darren Bragg BOS 4E L 27 CF   41 68 2 3 1 .959   1997 29 Darren Bragg 120 24 8 0 0 12 10 14 1 22 1 0 2 2 1 5 .200 .285 .267 .552 9   0.9 0.9 1.8 .022 .022 .044 1.05 1997 29 Darren Bragg
1997 31 Rudy Pemberton R BOS 4E R 27   23 35 2 2 1 .949   1997 31 Rudy Pemberton 57 14 2 0 2 7 10 3 0 12 3 0 0 0 0 0 .246 .317 .386 .703 7   0.9 0.3 1.2 .039 .013 .052 0.76 1997 31 Rudy Pemberton
     
1998 11 11 Darren Bragg BOS 2E L 28   112 188 5 1 2 .995   1998 11 11 Darren Bragg 356 102 24 3 7 47 51 40 0 81 6 4 4 4 3 15 .287 .365 .430 .795 54   7.6 2.8 10.4 .068 .025 .093 8.94 1998 11 11 Darren Bragg
1998 13 Darren Lewis BOS 2E R 30 CF   55 89 1 3 0 .968   1998 13 Darren Lewis 180 58 12 1 5 38 20 26 0 21 3 0 0 9 6 3 .322 .416 .483 .899 37   5.4 1.5 6.9 .098 .027 .125 6.90 1998 13 Darren Lewis
     
1999 10 10 Trot Nixon R-9 BOS 2E L 25   121 209 3 7 1 .968   1999 10 10 Trot Nixon 378 103 22 5 15 66 52 53 1 74 3 2 8 3 1 7 .272 .360 .476 .836 64   7.3 3.2 10.5 .060 .026 .087 8.50 1999 10 10 Trot Nixon
1999 22 Darren Lewis BOS 2E R 31 CF   51 87 3 0 1 1.000   1999 22 Darren Lewis 157 41 4 3 1 21 18 14 0 16 1 4 0 6 2 0 .261 .326 .344 .670 19   0.1 1.9 2.0 .002 .037 .039 1.09 1999 22 Darren Lewis
     
2000 6 6 Trot Nixon BOS 2E L 26   115 202 8 2 4 .991   2000 6 6 Trot Nixon 401 112 25 8 11 65 57 57 1 78 2 5 5 8 1 11 .279 .368 .464 .832 71   9.9 3.9 13.8 .086 .034 .120 13.83 2000 6 6 Trot Nixon
2000 29 Darren Lewis BOS 2E R 32 CF   37 61 1 1 0 .984   2000 29 Darren Lewis 108 26 3 0 0 15 8 9 0 11 1 3 0 4 3 1 .241 .305 .269 .574 9   0.3 1.1 1.4 .008 .030 .038 0.79 2000 29 Darren Lewis
     
2001 8 7 Trot Nixon BOS 2E L 27 CF   83 141 3 5 3 .966   2001 8 7 Trot Nixon 275 72 19 2 12 47 39 37 1 51 3 4 5 4 1 5 .262 .350 .476 .826 48   7.9 1.8 9.7 .095 .022 .117 9.40 2001 8 7 Trot Nixon
2001 20 Troy O'Leary BOS 2E L 31 LF   41 72 0 0 0 1.000   2001 20 Troy O'Leary 135 34 9 3 4 23 23 15 1 27 2 0 4 1 2 6 .252 .327 .452 .779 19   1.9 0.9 2.8 .046 .022 .068 2.08 2001 20 Troy O'Leary
2001 26 Darren Lewis BOS 2E R 33 LF,CF   29 36 3 0 2 1.000   2001 26 Darren Lewis 70 20 5 0 0 5 3 4 0 12 0 2 0 4 4 0 .286 .324 .357 .681 8   1.0 0.7 1.7 .034 .024 .059 1.17 2001 26 Darren Lewis
     
2002 4 4 Trot Nixon BOS 2E L 28   145 273 4 5 3 .982   2002 4 4 Trot Nixon 493 129 34 3 24 76 92 60 2 102 3 3 7 4 2 7 .262 .341 .489 .830 84   13.7 3.0 16.7 .094 .021 .115 16.64 2002 4 4 Trot Nixon
     
2003 2 2 Trot Nixon BOS 2E L 29   129 230 4 4 0 .983   2003 2 2 Trot Nixon 433 134 24 6 28 81 87 62 4 94 3 1 3 4 2 3 .309 .397 .587 .984 101   17.8 2.2 20.0 .138 .017 .155 23.27 2003 2 2 Trot Nixon
2003 24 Gabe Kapler BOS 2E R 27 LF   30 40 2 3 1 .933   2003 24 Gabe Kapler 87 30 9 1 1 14 12 5 0 11 0 0 0 2 1 3 .345 .380 .506 .886 16   2.2 0.3 2.5 .073 .010 .083 2.13 2003 24 Gabe Kapler
     
2004 21 11 Gabe Kapler BOS 2E R 28   101 133 5 2 0 .986   2004 21 11 Gabe Kapler 225 67 12 1 4 37 27 10 0 35 1 1 2 4 3 4 .298 .328 .413 .741 30   2.2 1.8 4.0 .022 .018 .040 2.33 2004 21 11 Gabe Kapler
2004 11 Kevin Millar BOS 2E R 32 1B,LF   55 96 1 3 0 .970   2004 11 Kevin Millar 194 58 11 0 6 29 24 20 0 37 5 0 2 0 1 4 .299 .376 .448 .824 33   5.7 1.1 6.8 .104 .020 .124 7.02 2004 11 Kevin Millar
2004 15 Trot Nixon BOS 2E L 30   40 63 1 1 0 .985   2004 15 Trot Nixon 134 43 9 1 5 25 18 15 1 21 1 0 2 0 0 3 .321 .388 .515 .903 27   3.4 0.8 4.2 .085 .020 .105 4.00 2004 15 Trot Nixon
     
Pos St All- Other Right Field Fielding Stats Pos St Batting Statistics as Right Fielder Win Shares Pos St
Year Rank Rank Name HOF MVP Star Rookie GG SS Team Stdg Bats Age Pos Games PO Assts Err DP F Pct. Year Rank Rank Name At Bats Hits 2B 3B HR Runs RBI BB IBB SO HP SH SF SB CS GDP BA OBA SA OPS RC B WS F WS T WS BWS/G FWS/G TWS/G Adj WSQ Year Rank Rank Name
2005 6 6 Trot Nixon BOS T1E L 31   118 240 8 1 3 .996   2005 6 6 Trot Nixon 398 111 29 1 13 63 66 51 3 56 3 0 5 2 1 7 .279 .361 .455 .816 65   14.4 2.6 17.0 .122 .022 .144 18.53 2005 6 6 Trot Nixon
2005 20 Jay Payton BOS T1E R 32 LF,CF   31 54 2 0 0 1.000   2005 20 Jay Payton 75 21 5 0 3 12 12 4 0 9 0 0 1 0 0 2 .280 .313 .467 .780 11   1.3 0.7 2.0 .042 .023 .065 1.46 2005 20 Jay Payton
2005 29 Gabe Kapler BOS T1E R 29   22 45 0 0 0 1.000   2005 29 Gabe Kapler 55 12 5 0 0 11 6 2 0 8 1 1 1 0 0 0 .218 .254 .309 .563 5   - 0.6 0.6 .000 .027 .027 0.28 2005 29 Gabe Kapler
     
2006 10 10 Trot Nixon BOS 3E L 32   110 212 6 1 2 .995   2006 10 10 Trot Nixon 369 101 24 0 8 56 52 57 1 51 7 0 5 0 2 10 .274 .377 .404 .781 55   8.6 1.0 9.6 .078 .009 .087 8.39 2006 10 10 Trot Nixon
2006 22 Wily Mo Pena BOS 3E R 24 CF   39 63 2 2 0 .970   2006 22 Wily Mo Pena 124 32 7 2 9 20 21 8 0 45 2 0 1 0 0 4 .258 .311 .565 .876 21   2.9 0.4 3.3 .074 .010 .085 2.84 2006 22 Wily Mo Pena
2006 37 Gabe Kapler BOS 3E R 30 LF   37 48 2 0 1 1.000   2006 37 Gabe Kapler 64 13 4 0 0 6 2 5 0 8 2 0 0 1 0 1 .203 .282 .266 .548 5   0.4 0.5 0.9 .011 .014 .024 0.41 2006 37 Gabe Kapler
     
2007 12 11 J.D. Drew BOS 1E L 31   133 212 3 5 1 .977   2007 12 11 J.D. Drew 444 120 29 4 11 81 63 74 9 96 1 0 6 4 2 11 .270 .371 .428 .799 74   9.8 2.0 11.8 .074 .015 .089 9.87 2007 12 11 J.D. Drew
2007 24 Wily Mo Pena BOS 1E R 25 LF   36 43 0 1 0 .977   2007 24 Wily Mo Pena 79 23 8 0 2 11 8 5 0 21 1 0 0 0 1 3 .291 .341 .468 .809 11   - 0.4 0.4 .000 .011 .011 0.12 2007 24 Wily Mo Pena
     
2008 5 5 J.D. Drew a BOS 2E L 32   106 184 6 4 1 .979   2008 5 5 J.D. Drew 360 100 22 4 19 80 61 75 5 79 4 0 5 4 1 11 .278 .403 .519 .922 79   12.7 2.8 15.5 .120 .026 .146 16.80 2008 5 5 J.D. Drew
2008 21 Jacoby Ellsbury R-3 BOS 2E L 24 LF,CF   36 72 0 0 0 1.000   2008 21 Jacoby Ellsbury 137 40 5 2 2 20 14 9 1 20 1 2 0 16 2 2 .292 .340 .401 .741 21   2.4 1.2 3.6 .067 .033 .100 3.23 2008 21 Jacoby Ellsbury
     
2009 4 4 J.D. Drew BOS 2E L 33   131 242 5 2 2 .992   2009 4 4 J.D. Drew 445 124 30 4 24 84 66 75 5 107 3 1 1 2 6 6 .279 .385 .526 .911 92   13.9 3.2 17.1 .106 .024 .131 18.27 2009 4 4 J.D. Drew
2009 24 Rocco Baldelli BOS 2E R 27   35 49 2 3 0 .944   2009 24 Rocco Baldelli 95 27 2 1 5 16 14 6 0 16 1 0 1 1 0 4 .284 .330 .484 .814 14   1.2 0.5 1.7 .034 .014 .049 1.11 2009 24 Rocco Baldelli
     
2010 10 10 J.D. Drew BOS 3E L 34   133 234 1 1 1 .996   2010 10 10 J.D. Drew 466 119 23 2 22 69 68 57 1 104 4 0 4 3 1 11 .255 .339 .455 .794 73   10.1 2.9 13.0 .076 .022 .098 11.18 2010 10 10 J.D. Drew
2010 22 Darnell McDonald BOS 3E R 31 LF,CF   34 44 1 1 0 .978   2010 22 Darnell McDonald 83 28 6 1 3 12 8 7 0 20 0 5 0 2 1 2 .337 .389 .542 .931 17   2.6 0.5 3.1 .076 .015 .091 2.57 2010 22 Darnell McDonald
Copyright 2009-11 by Andre Lower
Sources:
All-Time Major League Handbook
Win Shares Digital Update
baseball-reference.com
ESPN Baseball Encyclopedia